Time;durP1;ratioP1;P1;durP2;ratioP2;P2;SDS_P1;SDS_P2;PMS_P1;PMS_P2;Temp;Humidity;BMP_temperature;BMP_pressure;BME280_temperature;BME280_humidity;BME280_pressure;Samples;Min_cycle;Max_cycle;Signal;HPM_P1;HPM_P2
2022/05/30 00:00:30;;;;;;;26.30;15.48;;;;;;;;;;6286785;28;20384;-60
2022/05/30 00:03:38;;;;;;;26.48;15.50;;;;;;;;;;6272601;28;20412;-60
2022/05/30 00:06:39;;;;;;;21.35;13.23;;;;;;;;;;6286627;28;20118;-60
2022/05/30 00:09:39;;;;;;;21.75;12.48;;;;;;;;;;6276310;28;20442;-59
2022/05/30 00:12:41;;;;;;;23.02;12.60;;;;;;;;;;6288618;28;20032;-59
2022/05/30 00:15:41;;;;;;;18.88;11.70;;;;;;;;;;6268286;28;20064;-59
2022/05/30 00:18:43;;;;;;;21.60;12.50;;;;;;;;;;6276054;28;20064;-60
2022/05/30 00:21:44;;;;;;;23.40;12.77;;;;;;;;;;6283875;28;20059;-60
2022/05/30 00:24:44;;;;;;;22.85;13.52;;;;;;;;;;6264367;28;20044;-60
2022/05/30 00:27:45;;;;;;;19.98;12.65;;;;;;;;;;6283025;28;20600;-59
2022/05/30 00:30:48;;;;;;;24.83;12.13;;;;;;;;;;6285629;28;20076;-59
2022/05/30 00:33:49;;;;;;;20.95;12.35;;;;;;;;;;6284631;28;20131;-59
2022/05/30 00:36:49;;;;;;;21.90;13.00;;;;;;;;;;6286690;28;20528;-58
2022/05/30 00:39:50;;;;;;;17.98;11.27;;;;;;;;;;6287014;28;20037;-59
2022/05/30 00:42:50;;;;;;;17.80;10.52;;;;;;;;;;6289244;28;20052;-59
2022/05/30 00:45:52;;;;;;;20.77;10.07;;;;;;;;;;6283512;28;20135;-59
2022/05/30 00:48:56;;;;;;;18.13;10.93;;;;;;;;;;6288604;28;20052;-59
2022/05/30 00:52:01;;;;;;;20.25;11.52;;;;;;;;;;6289679;28;20048;-59
2022/05/30 00:55:12;;;;;;;19.10;11.23;;;;;;;;;;6283093;28;20574;-58
2022/05/30 00:58:15;;;;;;;18.02;10.95;;;;;;;;;;6284711;28;20143;-58
2022/05/30 01:01:18;;;;;;;19.80;11.20;;;;;;;;;;6287578;28;20144;-60
2022/05/30 01:07:41;;;;;;;20.98;12.65;;;;;;;;;;6290398;28;20037;-58
2022/05/30 01:10:41;;;;;;;25.63;12.55;;;;;;;;;;6289662;28;20056;-59
2022/05/30 01:13:42;;;;;;;20.88;12.20;;;;;;;;;;6286755;28;20037;-59
2022/05/30 01:16:43;;;;;;;17.02;11.18;;;;;;;;;;6286841;28;20558;-59
2022/05/30 01:19:59;;;;;;;18.08;11.68;;;;;;;;;;6277754;28;20032;-59
2022/05/30 01:23:28;;;;;;;26.90;13.52;;;;;;;;;;6288424;28;20079;-59
2022/05/30 01:27:09;;;;;;;20.85;12.60;;;;;;;;;;6285996;28;20076;-59
2022/05/30 01:30:15;;;;;;;20.95;11.57;;;;;;;;;;6285387;28;20083;-59
2022/05/30 01:33:16;;;;;;;21.20;10.90;;;;;;;;;;6289531;28;20044;-59
2022/05/30 01:36:21;;;;;;;20.23;10.93;;;;;;;;;;6289904;28;20075;-58
2022/05/30 01:39:21;;;;;;;24.65;12.13;;;;;;;;;;6286831;28;20044;-59
2022/05/30 01:42:22;;;;;;;20.85;12.27;;;;;;;;;;6286994;28;20123;-59
2022/05/30 01:45:25;;;;;;;21.95;12.95;;;;;;;;;;6287059;28;20095;-59
2022/05/30 01:48:25;;;;;;;23.77;13.65;;;;;;;;;;6287369;28;20053;-59
2022/05/30 01:51:26;;;;;;;20.92;12.40;;;;;;;;;;6287157;28;20032;-59
2022/05/30 01:54:26;;;;;;;20.15;12.25;;;;;;;;;;6278626;28;20131;-59
2022/05/30 01:57:27;;;;;;;29.38;14.95;;;;;;;;;;6288730;28;20052;-59
2022/05/30 02:00:28;;;;;;;19.52;12.27;;;;;;;;;;6287653;28;20054;-59
2022/05/30 02:03:30;;;;;;;24.50;12.10;;;;;;;;;;6288522;28;20499;-58
2022/05/30 02:06:32;;;;;;;;;;;;;;;;;;6288550;28;20097;-59
2022/05/30 02:09:33;;;;;;;21.20;11.60;;;;;;;;;;6288674;28;19924;-58
2022/05/30 02:12:33;;;;;;;21.20;11.23;;;;;;;;;;6286294;28;20906;-60
2022/05/30 02:17:00;;;;;;;21.98;10.35;;;;;;;;;;6286635;28;20032;-60
2022/05/30 02:18:59;;;;;;;19.67;10.93;;;;;;;;;;6283647;28;20131;-59
2022/05/30 02:22:00;;;;;;;17.30;10.57;;;;;;;;;;6285481;28;20506;-59
2022/05/30 02:25:01;;;;;;;23.50;11.50;;;;;;;;;;6286721;28;20055;-59
2022/05/30 02:28:02;;;;;;;20.58;12.07;;;;;;;;;;6285676;28;20052;-59
2022/05/30 02:31:02;;;;;;;19.60;12.63;;;;;;;;;;6288250;28;20143;-59
2022/05/30 02:37:22;;;;;;;23.42;13.70;;;;;;;;;;6283955;28;20139;-60
2022/05/30 02:40:23;;;;;;;24.30;13.48;;;;;;;;;;6290221;28;20058;-60
2022/05/30 02:43:23;;;;;;;24.48;13.65;;;;;;;;;;6284936;28;20140;-59
2022/05/30 02:46:24;;;;;;;27.17;14.68;;;;;;;;;;6292236;28;20043;-60
2022/05/30 02:49:26;;;;;;;24.08;14.00;;;;;;;;;;6300451;28;20879;-59
2022/05/30 02:52:27;;;;;;;19.50;11.43;;;;;;;;;;6284713;28;22148;-59
2022/05/30 02:55:28;;;;;;;21.33;12.18;;;;;;;;;;6283782;28;20051;-59
2022/05/30 02:58:30;;;;;;;24.50;13.70;;;;;;;;;;6286739;28;20075;-59
2022/05/30 03:01:31;;;;;;;25.40;13.75;;;;;;;;;;6287218;28;20041;-60
2022/05/30 03:04:32;;;;;;;27.17;13.90;;;;;;;;;;6287227;28;20201;-59
2022/05/30 03:07:32;;;;;;;25.83;13.88;;;;;;;;;;6287313;28;20132;-59
2022/05/30 03:10:33;;;;;;;27.60;14.52;;;;;;;;;;6286701;28;20385;-59
2022/05/30 03:13:34;;;;;;;27.52;13.80;;;;;;;;;;6282959;28;20550;-59
2022/05/30 03:16:35;;;;;;;24.88;13.43;;;;;;;;;;6286466;28;20056;-60
2022/05/30 03:19:35;;;;;;;25.23;13.40;;;;;;;;;;6294465;28;20051;-59
2022/05/30 03:22:36;;;;;;;24.85;13.50;;;;;;;;;;6286340;28;20045;-59
2022/05/30 03:25:36;;;;;;;24.52;12.85;;;;;;;;;;6284890;28;20037;-60
2022/05/30 03:28:38;;;;;;;22.20;13.23;;;;;;;;;;6284246;28;20045;-60
2022/05/30 03:31:39;;;;;;;22.17;12.15;;;;;;;;;;6286333;28;20063;-59
2022/05/30 03:34:39;;;;;;;23.15;12.20;;;;;;;;;;6285350;28;20045;-59
2022/05/30 03:37:41;;;;;;;24.20;12.80;;;;;;;;;;6288135;28;20052;-59
2022/05/30 03:40:42;;;;;;;20.73;12.70;;;;;;;;;;6285084;28;20048;-60
2022/05/30 03:43:43;;;;;;;22.27;13.00;;;;;;;;;;6286070;28;20185;-59
2022/05/30 03:46:43;;;;;;;26.23;13.15;;;;;;;;;;6280640;28;20048;-59
2022/05/30 03:49:44;;;;;;;24.67;13.18;;;;;;;;;;6280931;28;20109;-60
2022/05/30 03:52:45;;;;;;;24.10;12.68;;;;;;;;;;6283824;28;20699;-59
2022/05/30 03:55:45;;;;;;;22.08;14.07;;;;;;;;;;6266740;28;20044;-60
2022/05/30 03:58:46;;;;;;;23.88;12.80;;;;;;;;;;6284842;28;20053;-59
2022/05/30 04:01:47;;;;;;;25.90;12.45;;;;;;;;;;6288183;28;20067;-60
2022/05/30 04:04:47;;;;;;;21.80;12.95;;;;;;;;;;6284278;28;20044;-59
2022/05/30 04:07:48;;;;;;;21.83;13.10;;;;;;;;;;6279352;28;20679;-59
2022/05/30 04:10:49;;;;;;;22.77;12.88;;;;;;;;;;6285316;28;20408;-60
2022/05/30 04:13:50;;;;;;;23.38;12.93;;;;;;;;;;6287089;28;20140;-58
2022/05/30 04:16:51;;;;;;;27.50;14.00;;;;;;;;;;6288763;28;20056;-60
2022/05/30 04:19:52;;;;;;;25.45;14.55;;;;;;;;;;6290901;28;20131;-60
2022/05/30 04:22:53;;;;;;;23.85;14.60;;;;;;;;;;6290368;28;20052;-60
2022/05/30 04:25:54;;;;;;;27.75;13.57;;;;;;;;;;6290105;28;20075;-59
2022/05/30 04:28:54;;;;;;;26.50;13.80;;;;;;;;;;6290425;28;20037;-60
2022/05/30 04:31:55;;;;;;;21.55;12.85;;;;;;;;;;6290057;28;20160;-60
2022/05/30 04:34:56;;;;;;;22.65;12.90;;;;;;;;;;6286983;28;20127;-59
2022/05/30 04:37:56;;;;;;;21.00;12.88;;;;;;;;;;6291651;28;20095;-59
2022/05/30 04:40:57;;;;;;;22.83;13.70;;;;;;;;;;6292126;28;20066;-60
2022/05/30 04:43:59;;;;;;;23.38;13.63;;;;;;;;;;6287097;28;20040;-65
2022/05/30 04:47:00;;;;;;;22.48;13.98;;;;;;;;;;6293083;28;20072;-60
2022/05/30 04:50:00;;;;;;;26.70;14.35;;;;;;;;;;6288205;28;20040;-61
2022/05/30 04:53:01;;;;;;;25.33;14.63;;;;;;;;;;6288957;28;20048;-59
2022/05/30 04:56:02;;;;;;;25.88;14.32;;;;;;;;;;6291442;28;20684;-60
2022/05/30 04:59:04;;;;;;;25.77;13.35;;;;;;;;;;6287759;28;20833;-59
2022/05/30 05:02:04;;;;;;;24.17;13.68;;;;;;;;;;6284008;28;20065;-61
2022/05/30 05:05:06;;;;;;;22.98;13.80;;;;;;;;;;6282804;28;20048;-58
2022/05/30 05:08:31;;;;;;;24.73;13.57;;;;;;;;;;6289363;28;20072;-59
2022/05/30 05:11:35;;;;;;;23.60;12.55;;;;;;;;;;6290762;28;20692;-59
2022/05/30 05:14:36;;;;;;;23.48;14.02;;;;;;;;;;6287682;28;20058;-59
2022/05/30 05:17:36;;;;;;;24.70;13.80;;;;;;;;;;6287023;28;20040;-59
2022/05/30 05:20:38;;;;;;;23.98;13.60;;;;;;;;;;6288228;28;20582;-59
2022/05/30 05:23:39;;;;;;;25.05;14.55;;;;;;;;;;6284878;28;20846;-59
2022/05/30 05:26:45;;;;;;;21.00;13.38;;;;;;;;;;6293783;28;20040;-59
2022/05/30 05:29:45;;;;;;;23.65;13.50;;;;;;;;;;6289558;28;20504;-59
2022/05/30 05:32:46;;;;;;;21.55;12.43;;;;;;;;;;6288595;28;20045;-58
2022/05/30 05:35:47;;;;;;;23.08;13.13;;;;;;;;;;6287923;28;20045;-59
2022/05/30 05:38:48;;;;;;;26.83;14.35;;;;;;;;;;6287735;28;20121;-59
2022/05/30 05:41:48;;;;;;;22.60;13.30;;;;;;;;;;6291546;28;20060;-59
2022/05/30 05:44:49;;;;;;;22.35;12.50;;;;;;;;;;6286697;28;20158;-60
2022/05/30 05:47:49;;;;;;;20.70;12.75;;;;;;;;;;6283063;28;20052;-59
2022/05/30 05:50:50;;;;;;;19.75;11.88;;;;;;;;;;6286045;28;20049;-60
2022/05/30 05:53:52;;;;;;;23.52;13.23;;;;;;;;;;6285383;28;20048;-60
2022/05/30 05:56:52;;;;;;;31.13;18.13;;;;;;;;;;6285089;28;20098;-59
2022/05/30 05:59:53;;;;;;;28.88;17.80;;;;;;;;;;6284549;28;20555;-60
2022/05/30 06:02:54;;;;;;;33.75;18.02;;;;;;;;;;6288230;28;20051;-59
2022/05/30 06:05:55;;;;;;;26.13;16.23;;;;;;;;;;6284893;28;20102;-59
2022/05/30 06:09:00;;;;;;;27.65;17.15;;;;;;;;;;6286161;28;20048;-60
2022/05/30 06:12:01;;;;;;;28.60;15.35;;;;;;;;;;6286580;28;20492;-59
2022/05/30 06:15:01;;;;;;;21.13;12.88;;;;;;;;;;6286136;28;20152;-60
2022/05/30 06:18:02;;;;;;;21.75;13.77;;;;;;;;;;6284846;28;21480;-59
2022/05/30 06:21:03;;;;;;;22.33;13.60;;;;;;;;;;6285198;28;20131;-60
2022/05/30 06:24:05;;;;;;;24.70;14.85;;;;;;;;;;6286162;28;20052;-60
2022/05/30 06:27:06;;;;;;;24.63;14.80;;;;;;;;;;6286192;28;20036;-59
2022/05/30 06:30:07;;;;;;;26.03;15.33;;;;;;;;;;6284338;28;20086;-60
2022/05/30 06:33:08;;;;;;;24.67;15.32;;;;;;;;;;6285216;28;20094;-59
2022/05/30 06:36:11;;;;;;;27.00;16.30;;;;;;;;;;6284343;28;20094;-59
2022/05/30 06:39:12;;;;;;;25.90;16.00;;;;;;;;;;6284056;28;20045;-59
2022/05/30 06:42:13;;;;;;;23.90;15.67;;;;;;;;;;6284846;28;20167;-60
2022/05/30 06:45:14;;;;;;;27.25;16.30;;;;;;;;;;6282830;28;20476;-60
2022/05/30 06:48:15;;;;;;;30.55;16.75;;;;;;;;;;6284882;28;20048;-60
2022/05/30 06:51:18;;;;;;;25.25;15.23;;;;;;;;;;6285374;28;20037;-59
2022/05/30 06:54:20;;;;;;;27.58;15.30;;;;;;;;;;6286695;28;20474;-60
2022/05/30 07:00:41;;;;;;;24.30;12.88;;;;;;;;;;6285690;28;20044;-59
2022/05/30 07:03:41;;;;;;;18.75;12.00;;;;;;;;;;6284375;28;20098;-60
2022/05/30 07:06:42;;;;;;;20.50;12.98;;;;;;;;;;6284941;28;20051;-60
2022/05/30 07:09:43;;;;;;;23.20;12.00;;;;;;;;;;6283078;28;20615;-60
2022/05/30 07:12:44;;;;;;;22.90;12.23;;;;;;;;;;6282269;28;21445;-60
2022/05/30 07:15:48;;;;;;;23.27;11.33;;;;;;;;;;6285258;28;20056;-60
2022/05/30 07:18:50;;;;;;;23.45;13.25;;;;;;;;;;6286187;28;20091;-59
2022/05/30 07:21:50;;;;;;;28.25;13.40;;;;;;;;;;6284819;28;20055;-60
2022/05/30 07:24:51;;;;;;;24.15;12.73;;;;;;;;;;6282279;28;20052;-60
2022/05/30 07:27:51;;;;;;;28.88;13.50;;;;;;;;;;6284236;28;20091;-60
2022/05/30 07:30:52;;;;;;;17.63;11.10;;;;;;;;;;6287040;28;20052;-59
2022/05/30 07:33:53;;;;;;;21.42;10.13;;;;;;;;;;6285299;28;20143;-60
2022/05/30 07:36:54;;;;;;;23.45;10.80;;;;;;;;;;6281545;28;20063;-59
2022/05/30 07:39:54;;;;;;;17.08;9.52;;;;;;;;;;6286046;28;20053;-59
2022/05/30 07:42:55;;;;;;;14.35;9.13;;;;;;;;;;6284959;28;20047;-59
2022/05/30 07:46:01;;;;;;;16.55;7.80;;;;;;;;;;6286593;28;20051;-60
2022/05/30 07:49:01;;;;;;;13.30;7.50;;;;;;;;;;6289280;28;20051;-60
2022/05/30 07:52:02;;;;;;;11.45;7.38;;;;;;;;;;6288204;28;20857;-60
2022/05/30 07:55:03;;;;;;;11.65;7.57;;;;;;;;;;6287551;28;20051;-60
2022/05/30 07:58:06;;;;;;;10.20;7.40;;;;;;;;;;6287128;28;20142;-60
2022/05/30 08:01:12;;;;;;;12.55;7.22;;;;;;;;;;6291000;28;20063;-60
2022/05/30 08:04:15;;;;;;;9.68;6.47;;;;;;;;;;6289045;28;20068;-61
2022/05/30 08:07:15;;;;;;;10.18;6.10;;;;;;;;;;6287933;28;20045;-60
2022/05/30 08:10:17;;;;;;;8.63;5.30;;;;;;;;;;6292294;28;20037;-61
2022/05/30 08:13:17;;;;;;;8.80;5.05;;;;;;;;;;6289403;28;21566;-60
2022/05/30 08:16:21;;;;;;;7.72;4.90;;;;;;;;;;6289717;28;20045;-59
2022/05/30 08:19:22;;;;;;;9.30;5.15;;;;;;;;;;6291904;28;20079;-59
2022/05/30 08:22:23;;;;;;;10.43;5.03;;;;;;;;;;6288732;28;20147;-59
2022/05/30 08:25:24;;;;;;;7.47;5.63;;;;;;;;;;6286143;28;20201;-60
2022/05/30 08:28:24;;;;;;;8.38;4.93;;;;;;;;;;6290065;28;20066;-60
2022/05/30 08:31:25;;;;;;;6.97;4.57;;;;;;;;;;6291491;28;20048;-60
2022/05/30 08:34:26;;;;;;;11.35;4.80;;;;;;;;;;6291750;28;20310;-59
2022/05/30 08:37:30;;;;;;;12.93;5.37;;;;;;;;;;6283937;28;20072;-59
2022/05/30 08:44:03;;;;;;;11.87;6.93;;;;;;;;;;6275695;28;20554;-65
2022/05/30 08:47:13;;;;;;;9.50;6.10;;;;;;;;;;6289945;28;20178;-60
2022/05/30 08:50:39;;;;;;;12.63;6.53;;;;;;;;;;6289742;28;20048;-59
2022/05/30 08:54:06;;;;;;;11.05;6.03;;;;;;;;;;6289557;28;20044;-58
2022/05/30 08:57:28;;;;;;;8.25;6.18;;;;;;;;;;6286879;28;20131;-60
2022/05/30 09:00:38;;;;;;;;;;;;;;;;;;6291234;28;20052;-60
2022/05/30 09:03:44;;;;;;;10.13;6.03;;;;;;;;;;6289579;28;19947;-60
2022/05/30 09:07:01;;;;;;;9.35;5.88;;;;;;;;;;6287309;28;20041;-60
2022/05/30 09:10:07;;;;;;;8.80;4.63;;;;;;;;;;6295397;28;20093;-60
2022/05/30 09:13:10;;;;;;;6.03;4.20;;;;;;;;;;6286731;28;20036;-60
2022/05/30 09:16:19;;;;;;;6.22;4.28;;;;;;;;;;6287789;28;20505;-60
2022/05/30 09:19:23;;;;;;;8.98;4.10;;;;;;;;;;6288515;28;20040;-59
2022/05/30 09:22:25;;;;;;;6.80;4.15;;;;;;;;;;6290232;28;20422;-60
2022/05/30 09:28:49;;;;;;;6.45;4.40;;;;;;;;;;6286080;28;20397;-60
2022/05/30 09:31:53;;;;;;;;;;;;;;;;;;6291861;28;20415;-60
2022/05/30 09:34:54;;;;;;;7.43;4.45;;;;;;;;;;6289558;28;20272;-60
2022/05/30 09:38:22;;;;;;;8.15;4.70;;;;;;;;;;6287043;28;20047;-59
2022/05/30 09:41:27;;;;;;;5.90;4.50;;;;;;;;;;6287021;28;20044;-59
2022/05/30 09:44:39;;;;;;;7.45;4.90;;;;;;;;;;6287093;28;20045;-60
2022/05/30 09:47:56;;;;;;;;;;;;;;;;;;6286879;28;20056;-60
2022/05/30 09:50:57;;;;;;;6.65;4.30;;;;;;;;;;6288287;28;20437;-66
2022/05/30 09:53:58;;;;;;;5.43;3.92;;;;;;;;;;6290096;28;20048;-59
2022/05/30 09:57:05;;;;;;;6.07;4.20;;;;;;;;;;6287446;28;20047;-59
2022/05/30 10:00:10;;;;;;;7.38;4.53;;;;;;;;;;6284337;28;20521;-59
2022/05/30 10:03:24;;;;;;;7.93;4.70;;;;;;;;;;6288074;28;20048;-60
2022/05/30 10:06:27;;;;;;;7.63;4.70;;;;;;;;;;6286511;28;20974;-60
2022/05/30 10:09:27;;;;;;;9.23;5.03;;;;;;;;;;6288086;28;20048;-60
2022/05/30 10:12:51;;;;;;;9.52;5.63;;;;;;;;;;6286201;28;20047;-59
2022/05/30 10:15:58;;;;;;;10.75;6.50;;;;;;;;;;6287485;28;20052;-59
2022/05/30 10:19:03;;;;;;;11.88;6.75;;;;;;;;;;6286296;28;20044;-59
2022/05/30 10:29:32;;;;;;;12.82;8.02;;;;;;;;;;6239637;28;20160;-60
2022/05/30 10:32:58;;;;;;;13.23;8.38;;;;;;;;;;6265675;28;20091;-61
2022/05/30 10:36:11;;;;;;;16.02;10.43;;;;;;;;;;6269423;28;20381;-60
2022/05/30 10:39:54;;;;;;;18.88;10.95;;;;;;;;;;6255614;28;20053;-60
2022/05/30 10:43:02;;;;;;;18.05;10.43;;;;;;;;;;6267693;28;20057;-59
2022/05/30 10:46:09;;;;;;;15.20;8.93;;;;;;;;;;6269572;28;20052;-59
2022/05/30 10:49:13;;;;;;;15.40;8.70;;;;;;;;;;6274482;28;20150;-59
2022/05/30 10:52:25;;;;;;;15.57;9.13;;;;;;;;;;6264216;28;20063;-61
2022/05/30 10:55:34;;;;;;;12.32;8.15;;;;;;;;;;6269257;28;20044;-60
2022/05/30 10:58:44;;;;;;;14.20;8.05;;;;;;;;;;6244345;28;20073;-60
2022/05/30 11:01:56;;;;;;;11.38;7.38;;;;;;;;;;6258290;28;20063;-59
2022/05/30 11:05:13;;;;;;;10.77;6.95;;;;;;;;;;6273795;28;20096;-60
2022/05/30 11:08:41;;;;;;;9.32;5.80;;;;;;;;;;6265440;28;20044;-59
2022/05/30 11:11:53;;;;;;;9.55;6.05;;;;;;;;;;6265236;28;20193;-59
2022/05/30 11:15:15;;;;;;;10.82;6.63;;;;;;;;;;6271723;28;20051;-58
2022/05/30 11:18:29;;;;;;;11.98;7.78;;;;;;;;;;6272136;28;20119;-60
2022/05/30 11:21:36;;;;;;;12.60;8.32;;;;;;;;;;6272506;28;20042;-60
2022/05/30 11:24:37;;;;;;;12.90;8.52;;;;;;;;;;6265862;28;20049;-59
2022/05/30 11:28:19;;;;;;;16.88;10.40;;;;;;;;;;6266663;28;20599;-59
2022/05/30 11:31:45;;;;;;;12.60;7.95;;;;;;;;;;6255301;28;20040;-59
2022/05/30 11:34:57;;;;;;;14.43;9.43;;;;;;;;;;6267251;28;20049;-60
2022/05/30 11:38:12;;;;;;;13.07;9.23;;;;;;;;;;6268717;28;20053;-59
2022/05/30 11:41:37;;;;;;;15.30;8.40;;;;;;;;;;6274539;28;20152;-59
2022/05/30 11:44:57;;;;;;;11.75;7.10;;;;;;;;;;6268911;28;20045;-59
2022/05/30 11:48:09;;;;;;;16.52;7.22;;;;;;;;;;6268487;28;20127;-59
2022/05/30 11:51:33;;;;;;;;;;;;;;;;;;6273320;28;20169;-59
2022/05/30 11:54:59;;;;;;;9.70;6.35;;;;;;;;;;6271995;28;20554;-60
2022/05/30 11:58:29;;;;;;;10.05;5.85;;;;;;;;;;6270940;28;20950;-59
2022/05/30 12:01:34;;;;;;;9.98;6.32;;;;;;;;;;6238816;28;20144;-59
2022/05/30 12:04:44;;;;;;;9.80;6.28;;;;;;;;;;6230972;28;20099;-61
2022/05/30 12:07:50;;;;;;;9.40;5.68;;;;;;;;;;6245201;28;20144;-60
2022/05/30 12:11:22;;;;;;;9.50;5.80;;;;;;;;;;6243967;28;20135;-61
2022/05/30 12:14:49;;;;;;;10.95;6.47;;;;;;;;;;6240065;28;20045;-60
2022/05/30 12:24:51;;;;;;;10.00;6.82;;;;;;;;;;6241345;28;20805;-60
2022/05/30 12:27:51;;;;;;;8.38;6.35;;;;;;;;;;6244251;28;20059;-59
2022/05/30 12:30:56;;;;;;;10.43;7.20;;;;;;;;;;6244806;28;20088;-61
2022/05/30 12:33:57;;;;;;;11.52;6.65;;;;;;;;;;6244726;28;20061;-61
2022/05/30 12:36:57;;;;;;;10.38;6.85;;;;;;;;;;6247223;28;20095;-60
2022/05/30 12:39:59;;;;;;;10.35;6.95;;;;;;;;;;6246671;28;20057;-61
2022/05/30 12:43:22;;;;;;;13.57;7.57;;;;;;;;;;6247649;28;20076;-61
2022/05/30 12:46:26;;;;;;;10.27;6.95;;;;;;;;;;6247906;28;20420;-59
2022/05/30 12:49:32;;;;;;;9.63;6.72;;;;;;;;;;6239318;28;20084;-60
2022/05/30 12:52:51;;;;;;;8.82;6.50;;;;;;;;;;6243362;28;20116;-60
2022/05/30 12:55:54;;;;;;;8.98;6.13;;;;;;;;;;6234985;28;20052;-60
2022/05/30 12:59:11;;;;;;;10.88;5.75;;;;;;;;;;6243194;28;20060;-60
2022/05/30 13:02:12;;;;;;;8.48;5.50;;;;;;;;;;6271151;28;20167;-59
2022/05/30 13:05:24;;;;;;;9.80;5.57;;;;;;;;;;6271943;28;20077;-61
2022/05/30 13:08:47;;;;;;;10.77;5.28;;;;;;;;;;6271463;28;20080;-61
2022/05/30 13:11:52;;;;;;;10.60;6.25;;;;;;;;;;6273598;28;20057;-61
2022/05/30 13:14:59;;;;;;;9.88;5.78;;;;;;;;;;6272714;28;20135;-60
2022/05/30 13:18:03;;;;;;;8.82;5.30;;;;;;;;;;6274402;28;20049;-61
2022/05/30 13:21:06;;;;;;;8.10;5.75;;;;;;;;;;6277136;28;20105;-60
2022/05/30 13:24:32;;;;;;;7.68;5.43;;;;;;;;;;6270869;28;20159;-61
2022/05/30 13:27:33;;;;;;;9.43;5.20;;;;;;;;;;6275655;28;20169;-60
2022/05/30 13:30:37;;;;;;;7.35;5.20;;;;;;;;;;6278317;28;20037;-60
2022/05/30 13:33:48;;;;;;;9.30;5.65;;;;;;;;;;6273356;28;20076;-61
2022/05/30 13:36:49;;;;;;;9.30;5.30;;;;;;;;;;6271340;28;20044;-61
2022/05/30 13:39:51;;;;;;;9.65;5.30;;;;;;;;;;6273934;28;20098;-60
2022/05/30 13:43:04;;;;;;;7.65;5.68;;;;;;;;;;6273595;28;20051;-60
2022/05/30 13:46:06;;;;;;;8.05;5.63;;;;;;;;;;6274160;28;20238;-61
2022/05/30 13:49:07;;;;;;;10.25;5.18;;;;;;;;;;6271060;28;20048;-61
2022/05/30 13:52:21;;;;;;;7.55;4.97;;;;;;;;;;6272016;28;20118;-60
2022/05/30 13:55:24;;;;;;;9.20;5.00;;;;;;;;;;6272949;28;20060;-61
2022/05/30 13:58:25;;;;;;;7.93;4.85;;;;;;;;;;6268552;28;20073;-61
2022/05/30 14:01:31;;;;;;;7.03;4.70;;;;;;;;;;6274796;28;20213;-61
2022/05/30 14:04:39;;;;;;;7.97;4.90;;;;;;;;;;6273116;28;20119;-61
2022/05/30 14:07:49;;;;;;;5.75;4.43;;;;;;;;;;6276109;28;20059;-60
2022/05/30 14:10:50;;;;;;;10.00;5.28;;;;;;;;;;6273006;28;20079;-60
2022/05/30 14:13:54;;;;;;;11.25;4.80;;;;;;;;;;6275556;28;20070;-61
2022/05/30 14:16:57;;;;;;;10.35;5.07;;;;;;;;;;6274144;28;20072;-61
2022/05/30 14:20:07;;;;;;;7.97;4.75;;;;;;;;;;6272545;28;20051;-61
2022/05/30 14:23:10;;;;;;;6.68;4.50;;;;;;;;;;6270441;28;20801;-60
2022/05/30 14:26:22;;;;;;;7.72;4.82;;;;;;;;;;6274937;28;20636;-61
2022/05/30 14:29:29;;;;;;;6.53;4.50;;;;;;;;;;6273494;28;20192;-60
2022/05/30 14:32:34;;;;;;;6.63;4.78;;;;;;;;;;6275246;28;20036;-60
2022/05/30 14:35:35;;;;;;;6.50;4.45;;;;;;;;;;6275026;28;20056;-61
2022/05/30 14:38:44;;;;;;;6.32;4.82;;;;;;;;;;6274737;28;20044;-60
2022/05/30 14:41:59;;;;;;;6.85;4.72;;;;;;;;;;6276784;28;20776;-60
2022/05/30 14:45:12;;;;;;;7.57;4.72;;;;;;;;;;6272971;28;20082;-61
2022/05/30 14:48:27;;;;;;;7.30;4.70;;;;;;;;;;6274316;28;20130;-60
2022/05/30 14:51:30;;;;;;;6.50;4.35;;;;;;;;;;6277019;28;20159;-60
2022/05/30 14:54:40;;;;;;;6.72;4.22;;;;;;;;;;6270861;28;20060;-61
2022/05/30 14:57:45;;;;;;;7.22;4.07;;;;;;;;;;6274745;28;20051;-61
2022/05/30 15:00:54;;;;;;;7.97;4.10;;;;;;;;;;6273454;28;20064;-62
2022/05/30 15:04:10;;;;;;;6.80;3.80;;;;;;;;;;6273814;28;20452;-62
2022/05/30 15:07:26;;;;;;;6.00;4.10;;;;;;;;;;6272318;28;20040;-61
2022/05/30 15:10:26;;;;;;;5.68;3.58;;;;;;;;;;6275063;28;20052;-60
2022/05/30 15:13:27;;;;;;;6.63;3.85;;;;;;;;;;6272808;28;20053;-61
2022/05/30 15:16:27;;;;;;;6.22;3.50;;;;;;;;;;6272552;28;20055;-62
2022/05/30 15:19:28;;;;;;;5.03;3.55;;;;;;;;;;6273394;28;20048;-60
2022/05/30 15:22:29;;;;;;;6.10;3.75;;;;;;;;;;6275164;28;20095;-62
2022/05/30 15:25:30;;;;;;;9.33;3.70;;;;;;;;;;6272968;28;20045;-59
2022/05/30 15:28:35;;;;;;;7.60;3.72;;;;;;;;;;6273885;28;20048;-62
2022/05/30 15:31:36;;;;;;;4.50;3.10;;;;;;;;;;6270631;28;21275;-60
2022/05/30 15:34:37;;;;;;;6.70;3.33;;;;;;;;;;6273956;28;20040;-60
2022/05/30 15:37:38;;;;;;;7.03;3.60;;;;;;;;;;6273236;28;20146;-59
2022/05/30 15:40:39;;;;;;;7.05;3.70;;;;;;;;;;6275254;28;20445;-61
2022/05/30 15:43:40;;;;;;;4.83;3.30;;;;;;;;;;6271973;28;20134;-60
2022/05/30 15:46:40;;;;;;;5.50;3.40;;;;;;;;;;6267491;28;20455;-60
2022/05/30 15:49:43;;;;;;;43.00;6.95;;;;;;;;;;6274675;28;20412;-61
2022/05/30 15:59:36;;;;;;;5.03;3.20;;;;;;;;;;6265292;28;20055;-60
2022/05/30 16:02:37;;;;;;;35.45;6.78;;;;;;;;;;6247470;28;20183;-61
2022/05/30 16:05:38;;;;;;;6.35;3.55;;;;;;;;;;6243397;28;21312;-61
2022/05/30 16:08:43;;;;;;;5.88;3.17;;;;;;;;;;6253870;28;20040;-60
2022/05/30 16:11:47;;;;;;;29.08;5.85;;;;;;;;;;6251549;28;20057;-61
2022/05/30 16:14:48;;;;;;;6.55;3.30;;;;;;;;;;6250207;28;20179;-60
2022/05/30 16:17:49;;;;;;;15.05;4.07;;;;;;;;;;6253002;28;20033;-61
2022/05/30 16:20:52;;;;;;;6.35;3.20;;;;;;;;;;6252898;28;20104;-60
2022/05/30 16:23:56;;;;;;;5.68;3.00;;;;;;;;;;6250607;28;20060;-61
2022/05/30 16:26:57;;;;;;;4.50;3.00;;;;;;;;;;6248599;28;20087;-60
2022/05/30 16:29:58;;;;;;;6.10;3.23;;;;;;;;;;6250960;28;20102;-60
2022/05/30 16:32:58;;;;;;;7.23;3.43;;;;;;;;;;6254209;28;20122;-60
2022/05/30 16:35:59;;;;;;;5.73;3.37;;;;;;;;;;6252068;28;20103;-60
2022/05/30 16:39:00;;;;;;;5.37;3.07;;;;;;;;;;6251767;28;20511;-59
2022/05/30 16:42:00;;;;;;;3.93;2.90;;;;;;;;;;6252224;28;20036;-60
2022/05/30 16:45:02;;;;;;;5.33;3.00;;;;;;;;;;6247746;28;21121;-60
2022/05/30 16:48:03;;;;;;;4.07;3.15;;;;;;;;;;6249593;28;20071;-60
2022/05/30 16:51:06;;;;;;;4.83;2.97;;;;;;;;;;6254238;28;21759;-59
2022/05/30 16:54:07;;;;;;;5.88;2.95;;;;;;;;;;6251821;28;20072;-59
2022/05/30 16:57:08;;;;;;;5.63;3.23;;;;;;;;;;6251921;28;20053;-60
2022/05/30 17:00:11;;;;;;;4.75;3.22;;;;;;;;;;6256281;28;20057;-59
2022/05/30 17:03:13;;;;;;;5.43;2.95;;;;;;;;;;6253366;28;20045;-60
2022/05/30 17:06:13;;;;;;;5.63;3.63;;;;;;;;;;6250203;28;20132;-61
2022/05/30 17:09:20;;;;;;;8.70;3.20;;;;;;;;;;6252648;28;20667;-62
2022/05/30 17:12:21;;;;;;;6.13;3.55;;;;;;;;;;6250034;28;20048;-61
2022/05/30 17:15:23;;;;;;;6.63;3.60;;;;;;;;;;6248716;28;20083;-61
2022/05/30 17:18:24;;;;;;;6.18;3.33;;;;;;;;;;6250404;28;20045;-61
2022/05/30 17:21:26;;;;;;;7.33;3.97;;;;;;;;;;6251601;28;20065;-61
2022/05/30 17:24:26;;;;;;;6.53;3.80;;;;;;;;;;6249685;28;20225;-61
2022/05/30 17:30:48;;;;;;;7.95;3.92;;;;;;;;;;6251627;28;20072;-61
2022/05/30 17:33:49;;;;;;;6.20;3.88;;;;;;;;;;6255382;28;20091;-61
2022/05/30 17:36:50;;;;;;;7.33;4.23;;;;;;;;;;6243333;28;20049;-60
2022/05/30 17:39:52;;;;;;;8.23;3.77;;;;;;;;;;6249648;28;20048;-61
2022/05/30 17:42:54;;;;;;;;;;;;;;;;;;6246357;28;20037;-60
2022/05/30 17:46:10;;;;;;;6.43;4.00;;;;;;;;;;6249107;28;19951;-61
2022/05/30 17:49:43;;;;;;;6.18;3.90;;;;;;;;;;6247834;28;20049;-60
2022/05/30 17:52:57;;;;;;;8.75;4.18;;;;;;;;;;6252851;28;20447;-62
2022/05/30 17:56:00;;;;;;;7.70;4.35;;;;;;;;;;6239157;28;20412;-61
2022/05/30 17:59:02;;;;;;;9.93;4.68;;;;;;;;;;6254472;28;20135;-62
2022/05/30 18:02:05;;;;;;;9.40;4.75;;;;;;;;;;6279070;28;20045;-61
2022/05/30 18:05:08;;;;;;;9.02;5.28;;;;;;;;;;6278099;28;20084;-59
2022/05/30 18:08:32;;;;;;;7.97;4.85;;;;;;;;;;6277777;28;20764;-61
2022/05/30 18:11:53;;;;;;;9.95;5.10;;;;;;;;;;6278627;28;20865;-61
2022/05/30 18:15:13;;;;;;;10.77;5.82;;;;;;;;;;6275653;28;20193;-61
2022/05/30 18:22:17;;;;;;;12.65;6.60;;;;;;;;;;6272085;28;20083;-60
2022/05/30 18:25:27;;;;;;;14.35;7.20;;;;;;;;;;6275475;28;20132;-61
2022/05/30 18:28:28;;;;;;;14.68;6.72;;;;;;;;;;6272958;28;20084;-62
2022/05/30 18:31:50;;;;;;;19.55;8.80;;;;;;;;;;6278049;28;20855;-60
2022/05/30 18:35:16;;;;;;;24.80;9.43;;;;;;;;;;6271272;28;20052;-61
2022/05/30 18:38:44;;;;;;;23.92;9.27;;;;;;;;;;6279903;28;20044;-61
2022/05/30 18:42:03;;;;;;;23.30;9.10;;;;;;;;;;6261096;28;20056;-60
2022/05/30 18:45:07;;;;;;;12.82;6.00;;;;;;;;;;6275429;28;20079;-61
2022/05/30 18:48:19;;;;;;;12.52;6.75;;;;;;;;;;6271247;28;20051;-58
2022/05/30 18:51:20;;;;;;;11.85;6.70;;;;;;;;;;6277667;28;20047;-61
2022/05/30 18:54:21;;;;;;;14.88;8.02;;;;;;;;;;6276800;28;20372;-59
2022/05/30 18:57:29;;;;;;;13.45;8.13;;;;;;;;;;6274114;28;20072;-60
2022/05/30 19:00:32;;;;;;;14.68;7.55;;;;;;;;;;6271292;28;20063;-60